Time;durP1;ratioP1;P1;durP2;ratioP2;P2;SDS_P1;SDS_P2;PMS_P1;PMS_P2;Temp;Humidity;BMP_temperature;BMP_pressure;BME280_temperature;BME280_humidity;BME280_pressure;Samples;Min_cycle;Max_cycle;Signal;HPM_P1;HPM_P2
2022/05/05 00:02:07;;;;;;;13.25;6.93;;;5.30;82.40;;;;;;5048587;28;20045;-64
2022/05/05 00:04:33;;;;;;;14.52;6.78;;;5.30;82.40;;;;;;5047930;28;20512;-64
2022/05/05 00:07:01;;;;;;;11.52;5.85;;;5.30;82.40;;;;;;5046812;28;20115;-63
2022/05/05 00:09:28;;;;;;;16.00;6.85;;;5.40;83.50;;;;;;5051491;28;20041;-64
2022/05/05 00:14:39;;;;;;;13.48;6.55;;;5.30;83.00;;;;;;5049532;28;20044;-63
2022/05/05 00:17:07;;;;;;;14.50;6.80;;;5.30;82.90;;;;;;5051343;28;20116;-64
2022/05/05 00:19:35;;;;;;;11.77;7.03;;;5.30;83.00;;;;;;5042036;28;20079;-64
2022/05/05 00:22:02;;;;;;;13.77;6.35;;;5.20;83.60;;;;;;5034491;28;20554;-64
2022/05/05 00:24:27;;;;;;;11.82;6.03;;;5.20;83.20;;;;;;5038818;28;20378;-64
2022/05/05 00:26:53;;;;;;;13.82;6.97;;;5.20;83.50;;;;;;5049278;28;20060;-63
2022/05/05 00:29:20;;;;;;;11.00;6.43;;;5.20;84.60;;;;;;5048546;28;20037;-64
2022/05/05 00:31:46;;;;;;;12.30;6.00;;;5.20;83.60;;;;;;5034977;28;20081;-64
2022/05/05 00:34:12;;;;;;;11.90;6.00;;;5.20;83.80;;;;;;5048293;28;20033;-64
2022/05/05 00:36:38;;;;;;;14.65;6.38;;;5.20;83.70;;;;;;5039171;28;20071;-63
2022/05/05 00:39:05;;;;;;;12.85;6.70;;;5.10;84.20;;;;;;5045766;28;20818;-64
2022/05/05 00:41:36;;;;;;;14.43;6.28;;;5.10;84.40;;;;;;5043296;28;20044;-64
2022/05/05 00:44:06;;;;;;;10.50;5.60;;;5.10;84.00;;;;;;5024593;28;20037;-64
2022/05/05 00:46:32;;;;;;;;;;;5.10;84.20;;;;;;5045140;28;20068;-64
2022/05/05 00:48:58;;;;;;;;;;;5.10;86.40;;;;;;5050583;28;19920;-64
2022/05/05 00:51:24;;;;;;;;;;;5.00;86.40;;;;;;5044671;28;19927;-64
2022/05/05 00:53:50;;;;;;;;;;;5.00;87.40;;;;;;5037238;28;19921;-64
2022/05/05 00:56:16;;;;;;;;;;;5.00;86.80;;;;;;5052228;28;19966;-64
2022/05/05 00:58:45;;;;;;;;;;;5.00;87.00;;;;;;5049535;28;19923;-63
2022/05/05 01:01:14;;;;;;;;;;;5.00;87.20;;;;;;5046342;28;20286;-64
2022/05/05 01:03:39;;;;;;;;;;;5.10;87.70;;;;;;5052625;28;19986;-64
2022/05/05 01:06:08;;;;;;;;;;;5.10;87.20;;;;;;5049786;28;19917;-64
2022/05/05 01:08:34;;;;;;;;;;;5.20;87.10;;;;;;5046033;28;20340;-64
2022/05/05 01:10:59;;;;;;;;;;;5.20;87.20;;;;;;5035216;28;19924;-64
2022/05/05 01:13:27;;;;;;;;;;;5.10;86.80;;;;;;5043862;28;20031;-64
2022/05/05 01:15:53;;;;;;;;;;;5.10;86.70;;;;;;5037603;28;20274;-64
2022/05/05 01:18:18;;;;;;;;;;;5.10;86.70;;;;;;5050449;28;20019;-64
2022/05/05 01:20:44;;;;;;;;;;;5.10;86.70;;;;;;5051921;28;20459;-64
2022/05/05 01:23:11;;;;;;;;;;;5.10;86.40;;;;;;5049716;28;19917;-64
2022/05/05 01:28:20;;;;;;;;;;;5.00;87.00;;;;;;5047725;28;20339;-64
2022/05/05 01:30:46;;;;;;;;;;;5.00;87.00;;;;;;5043902;28;20000;-64
2022/05/05 01:33:13;;;;;;;;;;;5.00;88.00;;;;;;5047153;28;20311;-63
2022/05/05 01:35:39;;;;;;;;;;;5.00;88.70;;;;;;5047219;28;19970;-64
2022/05/05 01:38:06;;;;;;;;;;;4.90;87.50;;;;;;5045100;28;19925;-65
2022/05/05 01:40:32;;;;;;;;;;;4.90;87.20;;;;;;5047223;28;20357;-64
2022/05/05 01:42:57;;;;;;;;;;;4.90;87.40;;;;;;5044930;28;19917;-64
2022/05/05 01:45:23;;;;;;;;;;;4.80;87.80;;;;;;5047845;28;19925;-64
2022/05/05 01:47:48;;;;;;;;;;;4.90;88.10;;;;;;5033329;28;19917;-63
2022/05/05 01:50:14;;;;;;;;;;;4.90;88.20;;;;;;5049140;28;19921;-63
2022/05/05 01:52:39;;;;;;;;;;;4.90;88.20;;;;;;5041681;28;19951;-64
2022/05/05 01:55:05;;;;;;;;;;;4.90;90.10;;;;;;5048381;28;19924;-64
2022/05/05 01:57:30;;;;;;;;;;;5.00;90.30;;;;;;5037192;28;20395;-64
2022/05/05 01:59:56;;;;;;;;;;;5.00;88.80;;;;;;5040907;28;20015;-64
2022/05/05 02:02:21;;;;;;;;;;;5.00;90.90;;;;;;5046548;28;19916;-65
2022/05/05 02:04:47;;;;;;;;;;;4.90;90.30;;;;;;5050607;28;20011;-64
2022/05/05 02:07:12;;;;;;;;;;;5.00;90.10;;;;;;5046723;28;19927;-63
2022/05/05 02:09:38;;;;;;;;;;;5.10;90.70;;;;;;5051300;28;19971;-65
2022/05/05 02:12:04;;;;;;;;;;;5.10;90.60;;;;;;5043335;28;19998;-63
2022/05/05 02:14:30;;;;;;;;;;;5.00;90.30;;;;;;5045006;28;19962;-64
2022/05/05 02:16:55;;;;;;;;;;;5.00;90.40;;;;;;5046389;28;19920;-64
2022/05/05 02:19:21;;;;;;;;;;;5.00;90.30;;;;;;5049010;28;19923;-64
2022/05/05 02:21:46;;;;;;;;;;;5.00;90.20;;;;;;5038562;28;20556;-64
2022/05/05 02:24:12;;;;;;;;;;;5.00;90.40;;;;;;5049370;28;19920;-64
2022/05/05 02:26:37;;;;;;;;;;;5.00;90.40;;;;;;5043122;28;19921;-64
2022/05/05 02:29:03;;;;;;;;;;;5.10;90.20;;;;;;5046235;28;19920;-64
2022/05/05 02:31:28;;;;;;;;;;;4.90;88.90;;;;;;5033788;28;19979;-64
2022/05/05 02:33:53;;;;;;;;;;;4.80;88.70;;;;;;5050996;28;19963;-64
2022/05/05 02:39:03;;;;;;;;;;;4.80;88.90;;;;;;5035632;28;19943;-64
2022/05/05 02:41:29;;;;;;;;;;;4.70;88.90;;;;;;5043631;28;20380;-64
2022/05/05 02:43:54;;;;;;;;;;;4.70;89.60;;;;;;5046414;28;19978;-65
2022/05/05 02:46:20;;;;;;;;;;;4.70;90.40;;;;;;5036000;28;19916;-64
2022/05/05 02:48:45;;;;;;;;;;;4.70;90.30;;;;;;5043386;28;19959;-64
2022/05/05 02:51:11;;;;;;;;;;;4.60;89.80;;;;;;5049184;28;19921;-64
2022/05/05 02:56:20;;;;;;;;;;;4.60;89.20;;;;;;5048411;28;19925;-65
2022/05/05 02:58:45;;;;;;;;;;;4.60;89.20;;;;;;5047784;28;19916;-64
2022/05/05 03:01:11;;;;;;;;;;;4.50;89.50;;;;;;5033169;28;19928;-64
2022/05/05 03:03:36;;;;;;;;;;;4.50;89.50;;;;;;5049729;28;19920;-64
2022/05/05 03:06:02;;;;;;;;;;;4.50;89.70;;;;;;5050163;28;20244;-64
2022/05/05 03:08:27;;;;;;;;;;;4.50;90.10;;;;;;5049736;28;19923;-64
2022/05/05 03:10:53;;;;;;;;;;;4.50;90.10;;;;;;5043632;28;19929;-64
2022/05/05 03:13:18;;;;;;;;;;;4.50;90.00;;;;;;5041043;28;19916;-64
2022/05/05 03:15:44;;;;;;;;;;;4.60;90.40;;;;;;5049612;28;20446;-64
2022/05/05 03:18:10;;;;;;;;;;;4.50;91.30;;;;;;5044836;28;20015;-65
2022/05/05 03:20:35;;;;;;;;;;;4.50;90.70;;;;;;5045153;28;20007;-64
2022/05/05 03:23:01;;;;;;;;;;;4.50;90.30;;;;;;5046010;28;19920;-64
2022/05/05 03:25:26;;;;;;;;;;;4.50;90.30;;;;;;5047317;28;19924;-64
2022/05/05 03:27:52;;;;;;;;;;;4.50;91.30;;;;;;5041467;28;20102;-64
2022/05/05 03:30:17;;;;;;;;;;;4.60;91.10;;;;;;5033224;28;19947;-64
2022/05/05 03:32:43;;;;;;;;;;;4.60;91.10;;;;;;5041259;28;20622;-64
2022/05/05 03:35:08;;;;;;;;;;;4.60;90.90;;;;;;5043174;28;19916;-64
2022/05/05 03:37:34;;;;;;;;;;;4.70;91.10;;;;;;5035910;28;19916;-64
2022/05/05 03:39:59;;;;;;;;;;;4.70;91.30;;;;;;5046871;28;20000;-64
2022/05/05 03:42:25;;;;;;;;;;;4.70;90.70;;;;;;5039933;28;19920;-64
2022/05/05 03:44:51;;;;;;;;;;;4.70;90.70;;;;;;5035937;28;19917;-64
2022/05/05 03:47:16;;;;;;;;;;;4.70;90.60;;;;;;5037062;28;19967;-64
2022/05/05 03:49:42;;;;;;;;;;;4.70;90.80;;;;;;5038677;28;19995;-65
2022/05/05 03:52:07;;;;;;;;;;;4.70;91.10;;;;;;5039090;28;19928;-64
2022/05/05 03:54:33;;;;;;;;;;;4.80;91.00;;;;;;5048458;28;20270;-65
2022/05/05 03:56:58;;;;;;;;;;;4.80;90.90;;;;;;5047825;28;20287;-64
2022/05/05 03:59:24;;;;;;;;;;;4.80;90.80;;;;;;5048026;28;19917;-64
2022/05/05 04:01:50;;;;;;;;;;;4.80;90.80;;;;;;5032140;28;20013;-65
2022/05/05 04:04:16;;;;;;;;;;;4.80;91.00;;;;;;5046266;28;20359;-64
2022/05/05 04:06:41;;;;;;;;;;;4.90;91.20;;;;;;5040775;28;19942;-64
2022/05/05 04:09:07;;;;;;;;;;;4.90;91.30;;;;;;5050123;28;19927;-64
2022/05/05 04:11:32;;;;;;;;;;;5.00;91.20;;;;;;5040849;28;20293;-64
2022/05/05 04:13:58;;;;;;;;;;;5.10;91.20;;;;;;5050107;28;19917;-64
2022/05/05 04:16:24;;;;;;;;;;;5.10;91.00;;;;;;5038136;28;20325;-64
2022/05/05 04:18:49;;;;;;;;;;;5.20;91.00;;;;;;5049017;28;19931;-64
2022/05/05 04:21:15;;;;;;;;;;;5.20;90.90;;;;;;5047081;28;20014;-64
2022/05/05 04:23:40;;;;;;;;;;;5.20;91.00;;;;;;5042266;28;19962;-65
2022/05/05 04:26:06;;;;;;;;;;;5.20;90.90;;;;;;5047794;28;19970;-64
2022/05/05 04:28:32;;;;;;;;;;;5.30;91.20;;;;;;5048156;28;19916;-65
2022/05/05 04:30:57;;;;;;;;;;;5.40;90.90;;;;;;5050053;28;19924;-64
2022/05/05 04:33:23;;;;;;;;;;;5.50;91.40;;;;;;5054857;28;20301;-64
2022/05/05 04:35:49;;;;;;;;;;;5.50;91.00;;;;;;5042765;28;19923;-65
2022/05/05 04:38:14;;;;;;;;;;;5.60;90.80;;;;;;5045505;28;19920;-65
2022/05/05 04:40:40;;;;;;;;;;;5.70;90.70;;;;;;5051205;28;19932;-64
2022/05/05 04:43:06;;;;;;;;;;;5.70;90.40;;;;;;5044389;28;19920;-64
2022/05/05 04:45:31;;;;;;;;;;;5.70;90.50;;;;;;5049975;28;20361;-64
2022/05/05 04:47:57;;;;;;;;;;;5.70;90.80;;;;;;5017191;28;20364;-64
2022/05/05 04:50:23;;;;;;;;;;;5.80;90.70;;;;;;5043685;28;19986;-64
2022/05/05 04:52:48;;;;;;;;;;;5.80;90.60;;;;;;5050026;28;19923;-65
2022/05/05 04:55:14;;;;;;;;;;;5.80;90.60;;;;;;5032694;28;20293;-64
2022/05/05 04:57:40;;;;;;;;;;;5.90;90.60;;;;;;5045428;28;19916;-64
2022/05/05 05:00:09;;;;;;;;;;;5.90;90.60;;;;;;5048178;28;19917;-64
2022/05/05 05:02:34;;;;;;;;;;;6.00;91.00;;;;;;5048175;28;20010;-64
2022/05/05 05:05:00;;;;;;;;;;;6.00;90.80;;;;;;5034879;28;19956;-64
2022/05/05 05:07:25;;;;;;;;;;;6.00;90.60;;;;;;5036420;28;20884;-64
2022/05/05 05:09:51;;;;;;;;;;;6.10;90.30;;;;;;5045339;28;19962;-64
2022/05/05 05:12:16;;;;;;;;;;;6.10;90.10;;;;;;5045190;28;19979;-64
2022/05/05 05:14:42;;;;;;;;;;;6.20;90.30;;;;;;5050788;28;19928;-63
2022/05/05 05:17:07;;;;;;;;;;;6.20;90.30;;;;;;5047827;28;19995;-64
2022/05/05 05:19:33;;;;;;;;;;;6.30;90.40;;;;;;5047062;28;19921;-64
2022/05/05 05:21:58;;;;;;;;;;;6.30;90.10;;;;;;5049672;28;19964;-64
2022/05/05 05:24:24;;;;;;;;;;;6.40;90.20;;;;;;5044148;28;19921;-65
2022/05/05 05:26:49;;;;;;;;;;;6.40;90.20;;;;;;5049241;28;20355;-64
2022/05/05 05:29:15;;;;;;;;;;;6.50;89.60;;;;;;5041824;28;19917;-64
2022/05/05 05:31:40;;;;;;;;;;;6.60;89.80;;;;;;5048067;28;20577;-64
2022/05/05 05:34:06;;;;;;;;;;;6.70;90.30;;;;;;5035660;28;20372;-64
2022/05/05 05:36:31;;;;;;;;;;;6.80;89.40;;;;;;5047120;28;19990;-64
2022/05/05 05:38:57;;;;;;;;;;;6.90;89.30;;;;;;5044761;28;19920;-64
2022/05/05 05:41:22;;;;;;;;;;;7.10;89.20;;;;;;5044060;28;20301;-64
2022/05/05 05:43:48;;;;;;;;;;;7.20;88.30;;;;;;5049615;28;19927;-64
2022/05/05 05:46:13;;;;;;;;;;;7.40;87.80;;;;;;5049267;28;20655;-64
2022/05/05 05:48:39;;;;;;;;;;;7.50;87.80;;;;;;5048119;28;20275;-64
2022/05/05 05:51:07;;;;;;;;;;;7.70;87.30;;;;;;5050733;28;19929;-64
2022/05/05 05:53:33;;;;;;;;;;;7.90;86.00;;;;;;5046715;28;20307;-64
2022/05/05 05:55:58;;;;;;;;;;;8.00;85.10;;;;;;5039646;28;19928;-64
2022/05/05 05:58:24;;;;;;;;;;;8.20;85.10;;;;;;5037259;28;20319;-64
2022/05/05 06:00:50;;;;;;;;;;;8.30;83.80;;;;;;5038601;28;19916;-64
2022/05/05 06:06:00;;;;;;;;;;;8.60;82.60;;;;;;5039985;28;19917;-64
2022/05/05 06:08:25;;;;;;;;;;;8.80;82.10;;;;;;5043476;28;19925;-64
2022/05/05 06:10:51;;;;;;;;;;;9.00;81.80;;;;;;5033017;28;19921;-64
2022/05/05 06:13:16;;;;;;;;;;;9.20;81.00;;;;;;5045635;28;19916;-65
2022/05/05 06:15:42;;;;;;;;;;;9.30;80.50;;;;;;5038978;28;19920;-64
2022/05/05 06:18:07;;;;;;;;;;;9.50;79.10;;;;;;5032249;28;19963;-65
2022/05/05 06:20:33;;;;;;;;;;;9.60;78.60;;;;;;5032136;28;19925;-64
2022/05/05 06:22:59;;;;;;;;;;;9.70;78.90;;;;;;5033219;28;19917;-64
2022/05/05 06:25:24;;;;;;;;;;;9.90;77.80;;;;;;5034574;28;19921;-64
2022/05/05 06:27:50;;;;;;;;;;;10.00;77.60;;;;;;5044616;28;19921;-65
2022/05/05 06:30:16;;;;;;;;;;;10.10;77.80;;;;;;5042407;28;20388;-64
2022/05/05 06:32:42;;;;;;;;;;;10.20;76.10;;;;;;5038196;28;19962;-64
2022/05/05 06:35:09;;;;;;;;;;;10.40;76.60;;;;;;5044913;28;19916;-65
2022/05/05 06:37:34;;;;;;;;;;;10.50;73.40;;;;;;5038736;28;19917;-65
2022/05/05 06:40:01;;;;;;;;;;;10.60;73.60;;;;;;5050329;28;19970;-64
2022/05/05 06:42:29;;;;;;;;;;;10.80;73.40;;;;;;5030919;28;19967;-64
2022/05/05 06:44:55;;;;;;;;;;;10.80;73.90;;;;;;5042585;28;20345;-64
2022/05/05 06:47:21;;;;;;;;;;;11.00;72.90;;;;;;5049040;28;19923;-64
2022/05/05 06:49:46;;;;;;;;;;;11.10;73.20;;;;;;5042050;28;19998;-65
2022/05/05 06:52:12;;;;;;;;;;;11.30;72.60;;;;;;5040981;28;20403;-66
2022/05/05 06:54:37;;;;;;;;;;;11.30;71.50;;;;;;5043486;28;19931;-64
2022/05/05 06:57:03;;;;;;;;;;;11.40;72.10;;;;;;5050522;28;20390;-64
2022/05/05 06:59:28;;;;;;;;;;;11.50;71.70;;;;;;5031944;28;19917;-64
2022/05/05 07:01:54;;;;;;;;;;;11.70;70.20;;;;;;5042015;28;20372;-64
2022/05/05 07:07:08;;;;;;;;;;;11.90;69.50;;;;;;5049181;28;19916;-65
2022/05/05 07:12:18;;;;;;;;;;;12.00;69.00;;;;;;5045500;28;20345;-64
2022/05/05 07:14:44;;;;;;;;;;;12.20;68.40;;;;;;5047012;28;19927;-65
2022/05/05 07:17:10;;;;;;;;;;;12.20;66.80;;;;;;5040101;28;19920;-65
2022/05/05 07:19:35;;;;;;;;;;;12.40;66.80;;;;;;5045295;28;19927;-65
2022/05/05 07:22:01;;;;;;;;;;;12.50;67.30;;;;;;5037591;28;20296;-65
2022/05/05 07:24:27;;;;;;;;;;;12.60;67.50;;;;;;5048127;28;19917;-64
2022/05/05 07:26:52;;;;;;;;;;;12.80;67.30;;;;;;5041756;28;20380;-65
2022/05/05 07:29:18;;;;;;;;;;;12.90;65.60;;;;;;5044547;28;19917;-64
2022/05/05 07:31:44;;;;;;;;;;;13.00;65.30;;;;;;5041655;28;19921;-65
2022/05/05 07:34:10;;;;;;;;;;;13.00;64.60;;;;;;5037187;28;19960;-65
2022/05/05 07:36:36;;;;;;;;;;;12.90;63.50;;;;;;5032446;28;19925;-64
2022/05/05 07:39:01;;;;;;;;;;;13.00;63.70;;;;;;5047998;28;20277;-64
2022/05/05 07:41:27;;;;;;;;;;;13.10;63.50;;;;;;5049327;28;19954;-65
2022/05/05 07:43:52;;;;;;;;;;;13.20;62.70;;;;;;5047345;28;20020;-64
2022/05/05 07:46:18;;;;;;;;;;;13.30;62.20;;;;;;5047192;28;19923;-64
2022/05/05 07:48:44;;;;;;;;;;;13.30;61.80;;;;;;5052230;28;19923;-64
2022/05/05 07:51:09;;;;;;;;;;;13.40;62.40;;;;;;5052273;28;19970;-65
2022/05/05 07:53:35;;;;;;;;;;;13.50;62.10;;;;;;5050995;28;20377;-64
2022/05/05 07:56:01;;;;;;;;;;;13.60;60.70;;;;;;5050609;28;19917;-65
2022/05/05 07:58:29;;;;;;;;;;;13.60;60.80;;;;;;5053494;28;19923;-65
2022/05/05 08:00:54;;;;;;;;;;;13.70;61.10;;;;;;5051975;28;19923;-64
2022/05/05 08:03:20;;;;;;;;;;;13.80;59.40;;;;;;5052877;28;19924;-64
2022/05/05 08:05:45;;;;;;;;;;;14.00;60.20;;;;;;5053266;28;20303;-64
2022/05/05 08:08:11;;;;;;;;;;;14.10;59.50;;;;;;5051607;28;20008;-65
2022/05/05 08:10:36;;;;;;;;;;;14.20;59.20;;;;;;5045677;28;19925;-65
2022/05/05 08:13:03;;;;;;;;;;;14.20;59.30;;;;;;5037684;28;20432;-65
2022/05/05 08:15:29;;;;;;;;;;;14.20;58.20;;;;;;5032263;28;19999;-65
2022/05/05 08:17:55;;;;;;;;;;;14.10;57.00;;;;;;5027955;28;20371;-65
2022/05/05 08:20:20;;;;;;;;;;;14.20;59.10;;;;;;5031187;28;19972;-65
2022/05/05 08:22:46;;;;;;;;;;;14.20;56.40;;;;;;5044612;28;19917;-65
2022/05/05 08:30:39;;;;;;;;;;;14.50;57.10;;;;;;5052551;28;19924;-65
2022/05/05 08:33:05;;;;;;;;;;;14.60;57.10;;;;;;5049650;28;20486;-65
2022/05/05 08:35:31;;;;;;;;;;;14.70;57.00;;;;;;5052895;28;19933;-65
2022/05/05 08:37:57;;;;;;;;;;;14.70;56.50;;;;;;5050374;28;20288;-64
2022/05/05 08:40:23;;;;;;;;;;;14.80;57.10;;;;;;5053177;28;19920;-65
2022/05/05 08:42:49;;;;;;;;;;;14.90;57.00;;;;;;5052094;28;19921;-65
2022/05/05 08:45:14;;;;;;;;;;;15.00;56.30;;;;;;5049105;28;19931;-64
2022/05/05 08:47:41;;;;;;;;;;;15.20;55.20;;;;;;5046842;28;19917;-65
2022/05/05 08:50:09;;;;;;;;;;;15.40;55.90;;;;;;5039745;28;19978;-64
2022/05/05 08:52:37;;;;;;;;;;;15.50;55.90;;;;;;5052321;28;20531;-64
2022/05/05 08:55:03;;;;;;;;;;;15.70;55.30;;;;;;5052822;28;20534;-64
2022/05/05 08:57:29;;;;;;;;;;;15.90;55.00;;;;;;5047846;28;20482;-64
2022/05/05 08:59:55;;;;;;;;;;;16.00;54.70;;;;;;5050149;28;19987;-64
2022/05/05 09:02:21;;;;;;;;;;;16.20;55.50;;;;;;5052192;28;19960;-63
2022/05/05 09:04:47;;;;;;;;;;;16.40;54.10;;;;;;5053806;28;19916;-64
2022/05/05 09:07:12;;;;;;;;;;;16.60;54.30;;;;;;5045704;28;19970;-64
2022/05/05 09:09:38;;;;;;;;;;;16.60;52.70;;;;;;5050086;28;19920;-64
2022/05/05 09:12:05;;;;;;;;;;;16.60;52.00;;;;;;5050839;28;19946;-64
2022/05/05 09:14:37;;;;;;;;;;;16.80;51.60;;;;;;5049933;28;19916;-65
2022/05/05 09:17:06;;;;;;;;;;;16.90;51.80;;;;;;5049646;28;20094;-65
2022/05/05 09:19:36;;;;;;;;;;;17.20;50.50;;;;;;5050638;28;20019;-64
2022/05/05 09:22:02;;;;;;;;;;;17.20;51.30;;;;;;5047678;28;19971;-64
2022/05/05 09:24:40;;;;;;;;;;;17.50;51.20;;;;;;5042008;28;19916;-64
2022/05/05 09:27:24;;;;;;;;;;;17.60;51.10;;;;;;5049426;28;19952;-65
2022/05/05 09:29:55;;;;;;;;;;;18.00;51.20;;;;;;5051273;28;20011;-64
2022/05/05 09:32:25;;;;;;;;;;;18.20;50.40;;;;;;5036648;28;19928;-64
2022/05/05 09:34:55;;;;;;;;;;;18.20;48.20;;;;;;5032577;28;20415;-65
2022/05/05 09:37:20;;;;;;;;;;;18.20;48.80;;;;;;5040503;28;20012;-65
2022/05/05 09:39:46;;;;;;;;;;;18.20;47.80;;;;;;5026687;28;20015;-65
2022/05/05 09:42:31;;;;;;;;;;;18.50;49.80;;;;;;5049441;28;19959;-65
2022/05/05 09:45:05;;;;;;;;;;;18.80;50.40;;;;;;5053337;28;19968;-65
2022/05/05 09:47:33;;;;;;;;;;;19.10;49.20;;;;;;5040116;28;19923;-64
2022/05/05 09:50:02;;;;;;;;;;;19.30;48.90;;;;;;5047579;28;20016;-66
2022/05/05 09:57:56;;;;;;;;;;;20.10;48.00;;;;;;5047668;28;19920;-66
2022/05/05 10:05:45;;;;;;;;;;;21.10;44.00;;;;;;5032633;28;19925;-65
2022/05/05 10:08:14;;;;;;;;;;;20.80;45.00;;;;;;5051651;28;19917;-65
2022/05/05 10:10:40;;;;;;;;;;;20.50;43.70;;;;;;5049677;28;19927;-66
2022/05/05 10:13:07;;;;;;;;;;;21.00;44.90;;;;;;5038116;28;19921;-65
2022/05/05 10:15:35;;;;;;;;;;;21.10;44.60;;;;;;5034348;28;19917;-65
2022/05/05 10:18:04;;;;;;;;;;;21.40;43.50;;;;;;5047578;28;20001;-65
2022/05/05 10:20:33;;;;;;;;;;;21.40;41.40;;;;;;5030239;28;19924;-65
2022/05/05 10:23:16;;;;;;;;;;;21.30;42.00;;;;;;5036586;28;19952;-64
2022/05/05 10:25:42;;;;;;;;;;;21.00;41.50;;;;;;5049241;28;20428;-65
2022/05/05 10:28:26;;;;;;;;;;;21.10;42.90;;;;;;5044750;28;19976;-65
2022/05/05 10:30:52;;;;;;;;;;;21.10;43.70;;;;;;5032558;28;20506;-66
2022/05/05 10:33:17;;;;;;;;;;;21.10;42.00;;;;;;5036118;28;19921;-65
2022/05/05 10:35:47;;;;;;;;;;;21.40;43.60;;;;;;5037767;28;20668;-66
2022/05/05 10:38:37;;;;;;;;;;;21.50;42.90;;;;;;5034543;28;19920;-65
2022/05/05 10:41:22;;;;;;;;;;;21.80;43.00;;;;;;5048808;28;19928;-64
2022/05/05 10:44:08;;;;;;;;;;;21.70;40.80;;;;;;5030479;28;19916;-65
2022/05/05 10:46:52;;;;;;;;;;;21.60;40.60;;;;;;5034037;28;19925;-64
2022/05/05 10:49:30;;;;;;;;;;;21.30;40.60;;;;;;5045744;28;20298;-66
2022/05/05 10:52:08;;;;;;;;;;;21.10;39.20;;;;;;5045418;28;20529;-66
2022/05/05 10:54:33;;;;;;;;;;;21.20;42.20;;;;;;5048920;28;19927;-66
2022/05/05 10:57:18;;;;;;;;;;;21.20;40.80;;;;;;5047022;28;19916;-66
2022/05/05 11:00:03;;;;;;;;;;;21.20;41.00;;;;;;5052268;28;20446;-65
2022/05/05 11:02:28;;;;;;;;;;;21.40;42.20;;;;;;5046094;28;20346;-65
2022/05/05 11:05:14;;;;;;;;;;;21.50;41.70;;;;;;5034152;28;19921;-65
2022/05/05 11:07:39;;;;;;;;;;;21.50;40.60;;;;;;5038160;28;19920;-66
2022/05/05 11:10:05;;;;;;;;;;;21.80;41.40;;;;;;5042402;28;19924;-64
2022/05/05 11:12:32;;;;;;;;;;;21.80;42.80;;;;;;5043503;28;19983;-66
2022/05/05 11:23:32;;;;;;;;;;;22.10;40.80;;;;;;5048538;28;19920;-65
2022/05/05 11:25:58;;;;;;;;;;;22.40;40.70;;;;;;5040764;28;19921;-66
2022/05/05 11:28:26;;;;;;;;;;;22.40;40.20;;;;;;5053562;28;19927;-65
2022/05/05 11:30:52;;;;;;;;;;;22.50;38.80;;;;;;5049234;28;19927;-65
2022/05/05 11:33:19;;;;;;;;;;;22.60;39.60;;;;;;5047593;28;19920;-66
2022/05/05 11:35:56;;;;;;;;;;;22.40;39.10;;;;;;5056056;28;19921;-67
2022/05/05 11:38:22;;;;;;;;;;;22.60;39.30;;;;;;5042982;28;20578;-65
2022/05/05 11:40:47;;;;;;;;;;;22.60;39.30;;;;;;5037750;28;20722;-66
2022/05/05 11:45:57;;;;;;;;;;;22.70;37.40;;;;;;5043372;28;20004;-65
2022/05/05 11:48:22;;;;;;;;;;;22.30;35.50;;;;;;5053244;28;19999;-65
2022/05/05 11:50:48;;;;;;;;;;;22.40;37.40;;;;;;5046505;28;19921;-65
2022/05/05 11:53:14;;;;;;;;;;;22.20;37.90;;;;;;5046693;28;19928;-66
2022/05/05 11:55:40;;;;;;;;;;;22.10;37.10;;;;;;5039793;28;19996;-66
2022/05/05 11:58:13;;;;;;;;;;;22.20;36.50;;;;;;5049786;28;20050;-65
2022/05/05 12:03:23;;;;;;;;;;;22.20;37.40;;;;;;5050364;28;19921;-65
2022/05/05 12:05:52;;;;;;;;;;;22.10;36.60;;;;;;5053003;28;20443;-64
2022/05/05 12:08:19;;;;;;;;;;;22.20;37.20;;;;;;5044050;28;19952;-65
2022/05/05 12:10:44;;;;;;;;;;;22.50;38.50;;;;;;5053787;28;19920;-66
2022/05/05 12:13:10;;;;;;;;;;;22.80;37.30;;;;;;5052174;28;19927;-66
2022/05/05 12:15:37;;;;;;;;;;;22.90;36.90;;;;;;5052278;28;19976;-65
2022/05/05 12:18:03;;;;;;;;;;;23.00;35.90;;;;;;5035727;28;19924;-66
2022/05/05 12:20:29;;;;;;;;;;;23.20;33.80;;;;;;5033851;28;19917;-65
2022/05/05 12:22:56;;;;;;;;;;;23.10;35.00;;;;;;5035749;28;19916;-65
2022/05/05 12:25:23;;;;;;;;;;;23.30;34.10;;;;;;5035847;28;19924;-65
2022/05/05 12:27:58;;;;;;;;;;;23.50;35.00;;;;;;5040773;28;19920;-65
2022/05/05 12:30:40;;;;;;;;;;;23.70;35.70;;;;;;5051849;28;20373;-66
2022/05/05 12:33:07;;;;;;;;;;;23.70;34.40;;;;;;5047540;28;20289;-65
2022/05/05 12:35:34;;;;;;;;;;;24.30;33.60;;;;;;5052124;28;19924;-66
2022/05/05 12:38:00;;;;;;;;;;;24.30;32.60;;;;;;5049640;28;20258;-66
2022/05/05 12:40:26;;;;;;;;;;;24.00;32.50;;;;;;5047548;28;19917;-66
2022/05/05 12:42:58;;;;;;;;;;;24.80;34.30;;;;;;5035971;28;19928;-66
2022/05/05 12:45:27;;;;;;;;;;;26.30;34.80;;;;;;5052566;28;19928;-67
2022/05/05 12:47:54;;;;;;;;;;;27.40;30.70;;;;;;5043661;28;20007;-66
2022/05/05 12:50:31;;;;;;;;;;;27.00;29.60;;;;;;5049729;28;20368;-66
2022/05/05 13:01:18;;;;;;;;;;;25.80;32.40;;;;;;5041408;28;19923;-65
2022/05/05 13:03:44;;;;;;;;;;;25.40;33.20;;;;;;5034447;28;19949;-67
2022/05/05 13:06:12;;;;;;;;;;;24.90;30.90;;;;;;5033933;28;20471;-65
2022/05/05 13:08:37;;;;;;;;;;;24.70;32.40;;;;;;5037927;28;19970;-66
2022/05/05 13:11:03;;;;;;;;;;;24.50;33.50;;;;;;5032844;28;19928;-67
2022/05/05 13:13:28;;;;;;;;;;;23.80;33.40;;;;;;5031800;28;19924;-65
2022/05/05 13:15:54;;;;;;;;;;;23.50;33.00;;;;;;5037809;28;19921;-66
2022/05/05 13:18:20;;;;;;;;;;;23.00;33.10;;;;;;5044321;28;20396;-66
2022/05/05 13:20:45;;;;;;;;;;;22.70;35.10;;;;;;5051818;28;19928;-67
2022/05/05 13:23:10;;;;;;;;;;;22.40;36.80;;;;;;5047203;28;20003;-65
2022/05/05 13:25:36;;;;;;;;;;;22.20;37.60;;;;;;5032344;28;19927;-66
2022/05/05 13:28:02;;;;;;;;;;;21.90;37.10;;;;;;5042588;28;19920;-67
2022/05/05 13:30:27;;;;;;;;;;;21.60;38.00;;;;;;5051818;28;19962;-65
2022/05/05 13:32:53;;;;;;;;;;;21.40;39.10;;;;;;5050952;28;19921;-66
2022/05/05 13:35:19;;;;;;;;;;;21.30;39.60;;;;;;5044074;28;20285;-66
2022/05/05 13:37:44;;;;;;;;;;;21.30;39.80;;;;;;5029684;28;20454;-65
2022/05/05 13:40:10;;;;;;;;;;;21.20;39.10;;;;;;5034915;28;19917;-66
2022/05/05 13:42:36;;;;;;;;;;;21.30;40.10;;;;;;5041016;28;19916;-66
2022/05/05 13:45:01;;;;;;;;;;;21.40;39.30;;;;;;5051772;28;20002;-66
2022/05/05 13:47:27;;;;;;;;;;;21.50;38.90;;;;;;5049102;28;19986;-65
2022/05/05 13:49:52;;;;;;;;;;;21.60;39.00;;;;;;5050779;28;19925;-65
2022/05/05 13:52:18;;;;;;;;;;;22.00;39.40;;;;;;5052520;28;19941;-65
2022/05/05 13:54:45;;;;;;;;;;;22.50;38.60;;;;;;5047658;28;19943;-66
2022/05/05 13:57:10;;;;;;;;;;;23.30;38.30;;;;;;5045335;28;19969;-66
2022/05/05 13:59:36;;;;;;;;;;;23.30;37.20;;;;;;5044280;28;20372;-65
2022/05/05 14:02:03;;;;;;;;;;;22.90;36.00;;;;;;5049864;28;19916;-65
2022/05/05 14:04:29;;;;;;;;;;;22.70;37.60;;;;;;5041871;28;19962;-65
2022/05/05 14:06:56;;;;;;;;;;;22.70;38.20;;;;;;5040337;28;19916;-66
2022/05/05 14:12:12;;;;;;;;;;;22.20;39.30;;;;;;5052043;28;20016;-66
2022/05/05 14:14:38;;;;;;;;;;;22.10;39.50;;;;;;5051209;28;19917;-65
2022/05/05 14:17:04;;;;;;;;;;;22.10;40.10;;;;;;5043121;28;19925;-65
2022/05/05 14:19:30;;;;;;;;;;;22.00;40.20;;;;;;5048326;28;19916;-65
2022/05/05 14:21:58;;;;;;;;;;;21.90;40.20;;;;;;5037658;28;19959;-65
2022/05/05 14:24:23;;;;;;;;;;;21.70;40.20;;;;;;5033817;28;20285;-66
2022/05/05 14:26:49;;;;;;;;;;;21.50;40.20;;;;;;5048927;28;20034;-65
2022/05/05 14:29:14;;;;;;;;;;;21.40;41.40;;;;;;5050103;28;20304;-66
2022/05/05 14:31:40;;;;;;;;;;;21.30;40.80;;;;;;5050248;28;19925;-65
2022/05/05 14:34:06;;;;;;;;;;;21.20;41.10;;;;;;5045004;28;19917;-66
2022/05/05 14:36:32;;;;;;;;;;;21.20;41.50;;;;;;5045524;28;19916;-66
2022/05/05 14:38:59;;;;;;;;;;;21.20;41.00;;;;;;5043164;28;19971;-65
2022/05/05 14:41:25;;;;;;;;;;;21.10;41.40;;;;;;5045431;28;19917;-65
2022/05/05 14:43:51;;;;;;;;;;;21.00;41.60;;;;;;5043456;28;20281;-65
2022/05/05 14:46:16;;;;;;;;;;;20.90;41.50;;;;;;5048897;28;19924;-66
2022/05/05 14:48:42;;;;;;;;;;;20.90;41.50;;;;;;5030972;28;19916;-66
2022/05/05 14:51:08;;;;;;;;;;;20.80;41.70;;;;;;5041768;28;19920;-66
2022/05/05 14:53:34;;;;;;;;;;;20.80;42.20;;;;;;5041276;28;20277;-66
2022/05/05 14:55:59;;;;;;;;;;;20.70;42.30;;;;;;5037967;28;19921;-66
2022/05/05 14:58:25;;;;;;;;;;;20.60;43.30;;;;;;5047148;28;19936;-66
2022/05/05 15:00:50;;;;;;;;;;;20.50;42.40;;;;;;5050924;28;19917;-64
2022/05/05 15:03:16;;;;;;;;;;;20.30;42.90;;;;;;5050639;28;19920;-65
2022/05/05 15:05:42;;;;;;;;;;;20.30;42.80;;;;;;5035698;28;19917;-65
2022/05/05 15:08:07;;;;;;;;;;;20.30;43.20;;;;;;5038842;28;19927;-65
2022/05/05 15:10:33;;;;;;;;;;;20.10;43.00;;;;;;5031319;28;19979;-66
2022/05/05 15:12:59;;;;;;;;;;;20.10;43.80;;;;;;5046351;28;19987;-64
2022/05/05 15:15:25;;;;;;;;;;;20.00;44.10;;;;;;5045405;28;19964;-65